sensor_id;sensor_type;location;lat;lon;timestamp;temperature;humidity
19847;DHT22;10084;50.518;8.588;2024-02-28T00:02:24;3.00;81.10
19847;DHT22;10084;50.518;8.588;2024-02-28T00:04:50;3.00;81.50
19847;DHT22;10084;50.518;8.588;2024-02-28T00:07:16;2.90;81.70
19847;DHT22;10084;50.518;8.588;2024-02-28T00:09:43;2.90;82.00
19847;DHT22;10084;50.518;8.588;2024-02-28T00:12:08;2.90;82.70
19847;DHT22;10084;50.518;8.588;2024-02-28T00:14:35;2.90;85.80
19847;DHT22;10084;50.518;8.588;2024-02-28T00:17:01;2.90;89.70
19847;DHT22;10084;50.518;8.588;2024-02-28T00:19:26;2.80;90.40
19847;DHT22;10084;50.518;8.588;2024-02-28T00:21:52;2.90;90.20
19847;DHT22;10084;50.518;8.588;2024-02-28T00:24:18;2.90;90.10
19847;DHT22;10084;50.518;8.588;2024-02-28T00:26:43;2.90;80.00
19847;DHT22;10084;50.518;8.588;2024-02-28T00:29:09;2.90;80.60
19847;DHT22;10084;50.518;8.588;2024-02-28T00:31:35;2.80;81.60
19847;DHT22;10084;50.518;8.588;2024-02-28T00:34:01;2.80;81.30
19847;DHT22;10084;50.518;8.588;2024-02-28T00:36:27;2.80;79.80
19847;DHT22;10084;50.518;8.588;2024-02-28T00:38:53;2.80;79.10
19847;DHT22;10084;50.518;8.588;2024-02-28T00:41:18;2.80;82.00
19847;DHT22;10084;50.518;8.588;2024-02-28T00:43:44;2.70;74.40
19847;DHT22;10084;50.518;8.588;2024-02-28T00:46:10;2.70;74.20
19847;DHT22;10084;50.518;8.588;2024-02-28T00:48:38;2.70;74.00
19847;DHT22;10084;50.518;8.588;2024-02-28T00:51:04;2.70;74.60
19847;DHT22;10084;50.518;8.588;2024-02-28T00:53:30;2.70;76.00
19847;DHT22;10084;50.518;8.588;2024-02-28T00:55:56;2.70;78.00
19847;DHT22;10084;50.518;8.588;2024-02-28T00:58:21;2.70;79.50
19847;DHT22;10084;50.518;8.588;2024-02-28T01:00:50;2.60;82.20
19847;DHT22;10084;50.518;8.588;2024-02-28T01:03:16;2.60;83.00
19847;DHT22;10084;50.518;8.588;2024-02-28T01:05:43;2.60;84.30
19847;DHT22;10084;50.518;8.588;2024-02-28T01:08:09;2.50;81.80
19847;DHT22;10084;50.518;8.588;2024-02-28T01:10:35;2.60;85.30
19847;DHT22;10084;50.518;8.588;2024-02-28T01:13:02;2.50;85.30
19847;DHT22;10084;50.518;8.588;2024-02-28T01:15:28;2.50;84.90
19847;DHT22;10084;50.518;8.588;2024-02-28T01:17:53;2.50;80.50
19847;DHT22;10084;50.518;8.588;2024-02-28T01:20:19;2.40;80.30
19847;DHT22;10084;50.518;8.588;2024-02-28T01:22:45;2.40;79.00
19847;DHT22;10084;50.518;8.588;2024-02-28T01:25:10;2.50;77.60
19847;DHT22;10084;50.518;8.588;2024-02-28T01:27:36;2.40;77.10
19847;DHT22;10084;50.518;8.588;2024-02-28T01:30:02;2.40;76.50
19847;DHT22;10084;50.518;8.588;2024-02-28T01:32:30;2.40;76.50
19847;DHT22;10084;50.518;8.588;2024-02-28T01:34:55;2.40;76.70
19847;DHT22;10084;50.518;8.588;2024-02-28T01:37:21;2.30;77.10
19847;DHT22;10084;50.518;8.588;2024-02-28T01:39:47;2.30;77.90
19847;DHT22;10084;50.518;8.588;2024-02-28T01:42:14;2.30;78.80
19847;DHT22;10084;50.518;8.588;2024-02-28T01:44:47;2.30;79.20
19847;DHT22;10084;50.518;8.588;2024-02-28T01:47:15;2.30;80.70
19847;DHT22;10084;50.518;8.588;2024-02-28T01:49:42;2.30;80.30
19847;DHT22;10084;50.518;8.588;2024-02-28T01:52:09;2.30;82.90
19847;DHT22;10084;50.518;8.588;2024-02-28T01:54:35;2.30;78.90
19847;DHT22;10084;50.518;8.588;2024-02-28T01:57:02;2.30;80.60
19847;DHT22;10084;50.518;8.588;2024-02-28T01:59:29;2.30;81.10
19847;DHT22;10084;50.518;8.588;2024-02-28T02:01:56;2.30;82.80
19847;DHT22;10084;50.518;8.588;2024-02-28T02:04:22;2.30;80.60
19847;DHT22;10084;50.518;8.588;2024-02-28T02:06:48;2.30;82.40
19847;DHT22;10084;50.518;8.588;2024-02-28T02:09:15;2.30;81.70
19847;DHT22;10084;50.518;8.588;2024-02-28T02:11:41;2.20;80.90
19847;DHT22;10084;50.518;8.588;2024-02-28T02:14:07;2.20;82.60
19847;DHT22;10084;50.518;8.588;2024-02-28T02:16:33;2.10;80.80
19847;DHT22;10084;50.518;8.588;2024-02-28T02:18:58;2.10;81.30
19847;DHT22;10084;50.518;8.588;2024-02-28T02:21:29;2.10;82.10
19847;DHT22;10084;50.518;8.588;2024-02-28T02:23:55;2.10;83.30
19847;DHT22;10084;50.518;8.588;2024-02-28T02:26:21;2.10;84.60
19847;DHT22;10084;50.518;8.588;2024-02-28T02:28:47;2.00;82.80
19847;DHT22;10084;50.518;8.588;2024-02-28T02:31:13;2.00;83.10
19847;DHT22;10084;50.518;8.588;2024-02-28T02:33:40;1.90;83.80
19847;DHT22;10084;50.518;8.588;2024-02-28T02:36:05;1.80;87.40
19847;DHT22;10084;50.518;8.588;2024-02-28T02:38:31;1.80;83.90
19847;DHT22;10084;50.518;8.588;2024-02-28T02:40:57;1.80;84.20
19847;DHT22;10084;50.518;8.588;2024-02-28T02:43:22;1.70;80.20
19847;DHT22;10084;50.518;8.588;2024-02-28T02:45:48;1.70;81.70
19847;DHT22;10084;50.518;8.588;2024-02-28T02:48:14;1.70;81.80
19847;DHT22;10084;50.518;8.588;2024-02-28T02:50:39;1.70;82.10
19847;DHT22;10084;50.518;8.588;2024-02-28T02:53:08;1.70;80.20
19847;DHT22;10084;50.518;8.588;2024-02-28T02:55:34;1.70;80.60
19847;DHT22;10084;50.518;8.588;2024-02-28T02:58:00;1.70;82.10
19847;DHT22;10084;50.518;8.588;2024-02-28T03:00:26;1.70;80.80
19847;DHT22;10084;50.518;8.588;2024-02-28T03:02:52;1.70;81.00
19847;DHT22;10084;50.518;8.588;2024-02-28T03:05:17;1.60;81.40
19847;DHT22;10084;50.518;8.588;2024-02-28T03:07:43;1.60;81.20
19847;DHT22;10084;50.518;8.588;2024-02-28T03:10:09;1.60;83.20
19847;DHT22;10084;50.518;8.588;2024-02-28T03:12:36;1.60;82.50
19847;DHT22;10084;50.518;8.588;2024-02-28T03:15:02;1.60;84.30
19847;DHT22;10084;50.518;8.588;2024-02-28T03:17:29;1.60;82.60
19847;DHT22;10084;50.518;8.588;2024-02-28T03:19:54;1.60;81.50
19847;DHT22;10084;50.518;8.588;2024-02-28T03:22:20;1.70;82.30
19847;DHT22;10084;50.518;8.588;2024-02-28T03:24:46;1.70;82.50
19847;DHT22;10084;50.518;8.588;2024-02-28T03:27:12;1.60;83.60
19847;DHT22;10084;50.518;8.588;2024-02-28T03:29:37;1.70;83.40
19847;DHT22;10084;50.518;8.588;2024-02-28T03:32:03;1.70;84.30
19847;DHT22;10084;50.518;8.588;2024-02-28T03:34:29;1.60;83.50
19847;DHT22;10084;50.518;8.588;2024-02-28T03:36:55;1.70;82.20
19847;DHT22;10084;50.518;8.588;2024-02-28T03:39:21;1.70;84.50
19847;DHT22;10084;50.518;8.588;2024-02-28T03:41:47;1.70;87.80
19847;DHT22;10084;50.518;8.588;2024-02-28T03:44:13;1.70;88.50
19847;DHT22;10084;50.518;8.588;2024-02-28T03:46:38;1.60;88.70
19847;DHT22;10084;50.518;8.588;2024-02-28T03:49:04;1.70;88.80
19847;DHT22;10084;50.518;8.588;2024-02-28T03:51:30;1.60;89.00
19847;DHT22;10084;50.518;8.588;2024-02-28T03:53:56;1.70;89.10
19847;DHT22;10084;50.518;8.588;2024-02-28T03:56:25;1.70;88.70
19847;DHT22;10084;50.518;8.588;2024-02-28T03:58:51;1.70;89.00
19847;DHT22;10084;50.518;8.588;2024-02-28T04:01:17;1.80;89.50
19847;DHT22;10084;50.518;8.588;2024-02-28T04:03:44;1.80;89.70
19847;DHT22;10084;50.518;8.588;2024-02-28T04:06:10;1.80;90.20
19847;DHT22;10084;50.518;8.588;2024-02-28T04:08:36;1.90;90.10
19847;DHT22;10084;50.518;8.588;2024-02-28T04:11:02;2.00;90.10
19847;DHT22;10084;50.518;8.588;2024-02-28T04:13:28;2.10;90.20
19847;DHT22;10084;50.518;8.588;2024-02-28T04:15:53;2.10;90.30
19847;DHT22;10084;50.518;8.588;2024-02-28T04:18:19;2.10;90.30
19847;DHT22;10084;50.518;8.588;2024-02-28T04:20:45;2.10;89.10
19847;DHT22;10084;50.518;8.588;2024-02-28T04:23:11;2.20;89.30
19847;DHT22;10084;50.518;8.588;2024-02-28T04:25:36;2.30;90.10
19847;DHT22;10084;50.518;8.588;2024-02-28T04:28:06;2.30;89.70
19847;DHT22;10084;50.518;8.588;2024-02-28T04:30:31;2.40;90.10
19847;DHT22;10084;50.518;8.588;2024-02-28T04:32:57;2.40;89.90
19847;DHT22;10084;50.518;8.588;2024-02-28T04:35:23;2.50;89.80
19847;DHT22;10084;50.518;8.588;2024-02-28T04:37:49;2.60;90.00
19847;DHT22;10084;50.518;8.588;2024-02-28T04:40:15;2.70;90.00
19847;DHT22;10084;50.518;8.588;2024-02-28T04:42:41;2.70;90.30
19847;DHT22;10084;50.518;8.588;2024-02-28T04:45:08;2.80;88.90
19847;DHT22;10084;50.518;8.588;2024-02-28T04:47:33;2.80;88.70
19847;DHT22;10084;50.518;8.588;2024-02-28T04:49:59;2.80;89.00
19847;DHT22;10084;50.518;8.588;2024-02-28T04:52:24;2.80;89.40
19847;DHT22;10084;50.518;8.588;2024-02-28T04:54:51;2.90;89.60
19847;DHT22;10084;50.518;8.588;2024-02-28T04:57:17;2.90;89.10
19847;DHT22;10084;50.518;8.588;2024-02-28T04:59:43;2.90;88.90
19847;DHT22;10084;50.518;8.588;2024-02-28T05:02:10;2.90;88.60
19847;DHT22;10084;50.518;8.588;2024-02-28T05:04:35;2.90;87.90
19847;DHT22;10084;50.518;8.588;2024-02-28T05:07:01;3.00;87.60
19847;DHT22;10084;50.518;8.588;2024-02-28T05:09:27;3.00;87.80
19847;DHT22;10084;50.518;8.588;2024-02-28T05:11:52;3.00;88.00
19847;DHT22;10084;50.518;8.588;2024-02-28T05:14:18;3.00;88.10
19847;DHT22;10084;50.518;8.588;2024-02-28T05:16:44;3.10;88.00
19847;DHT22;10084;50.518;8.588;2024-02-28T05:19:09;3.10;87.90
19847;DHT22;10084;50.518;8.588;2024-02-28T05:21:41;3.20;88.20
19847;DHT22;10084;50.518;8.588;2024-02-28T05:24:08;3.20;88.10
19847;DHT22;10084;50.518;8.588;2024-02-28T05:26:35;3.20;87.80
19847;DHT22;10084;50.518;8.588;2024-02-28T05:29:01;3.30;88.10
19847;DHT22;10084;50.518;8.588;2024-02-28T05:31:27;3.30;88.30
19847;DHT22;10084;50.518;8.588;2024-02-28T05:33:55;3.30;88.60
19847;DHT22;10084;50.518;8.588;2024-02-28T05:36:29;3.40;88.40
19847;DHT22;10084;50.518;8.588;2024-02-28T05:38:57;3.40;88.50
19847;DHT22;10084;50.518;8.588;2024-02-28T05:41:23;3.40;88.80
19847;DHT22;10084;50.518;8.588;2024-02-28T05:43:49;3.50;89.10
19847;DHT22;10084;50.518;8.588;2024-02-28T05:46:16;3.50;89.20
19847;DHT22;10084;50.518;8.588;2024-02-28T05:48:42;3.50;89.10
19847;DHT22;10084;50.518;8.588;2024-02-28T05:51:08;3.50;89.20
19847;DHT22;10084;50.518;8.588;2024-02-28T05:53:34;3.50;89.30
19847;DHT22;10084;50.518;8.588;2024-02-28T05:56:05;3.50;89.40
19847;DHT22;10084;50.518;8.588;2024-02-28T05:58:31;3.50;89.10
19847;DHT22;10084;50.518;8.588;2024-02-28T06:00:57;3.60;89.40
19847;DHT22;10084;50.518;8.588;2024-02-28T06:03:22;3.60;89.60
19847;DHT22;10084;50.518;8.588;2024-02-28T06:05:48;3.60;89.40
19847;DHT22;10084;50.518;8.588;2024-02-28T06:08:14;3.70;89.30
19847;DHT22;10084;50.518;8.588;2024-02-28T06:10:41;3.70;89.40
19847;DHT22;10084;50.518;8.588;2024-02-28T06:13:08;3.70;89.30
19847;DHT22;10084;50.518;8.588;2024-02-28T06:15:33;3.70;89.50
19847;DHT22;10084;50.518;8.588;2024-02-28T06:17:59;3.70;89.70
19847;DHT22;10084;50.518;8.588;2024-02-28T06:20:28;3.70;89.60
19847;DHT22;10084;50.518;8.588;2024-02-28T06:22:54;3.70;89.60
19847;DHT22;10084;50.518;8.588;2024-02-28T06:25:19;3.70;89.80
19847;DHT22;10084;50.518;8.588;2024-02-28T06:27:48;3.70;90.00
19847;DHT22;10084;50.518;8.588;2024-02-28T06:30:14;3.80;90.10
19847;DHT22;10084;50.518;8.588;2024-02-28T06:32:40;3.80;90.20
19847;DHT22;10084;50.518;8.588;2024-02-28T06:35:07;3.80;90.20
19847;DHT22;10084;50.518;8.588;2024-02-28T06:37:33;3.80;90.20
19847;DHT22;10084;50.518;8.588;2024-02-28T06:39:59;3.80;90.20
19847;DHT22;10084;50.518;8.588;2024-02-28T06:42:25;3.80;90.20
19847;DHT22;10084;50.518;8.588;2024-02-28T06:44:50;3.90;90.20
19847;DHT22;10084;50.518;8.588;2024-02-28T06:47:16;3.90;90.20
19847;DHT22;10084;50.518;8.588;2024-02-28T06:49:43;4.00;90.20
19847;DHT22;10084;50.518;8.588;2024-02-28T06:52:09;4.00;90.20
19847;DHT22;10084;50.518;8.588;2024-02-28T06:54:35;4.00;90.00
19847;DHT22;10084;50.518;8.588;2024-02-28T06:57:01;4.10;89.90
19847;DHT22;10084;50.518;8.588;2024-02-28T06:59:28;4.10;90.10
19847;DHT22;10084;50.518;8.588;2024-02-28T07:01:53;4.00;90.00
19847;DHT22;10084;50.518;8.588;2024-02-28T07:04:19;4.10;90.20
19847;DHT22;10084;50.518;8.588;2024-02-28T07:06:45;4.10;90.10
19847;DHT22;10084;50.518;8.588;2024-02-28T07:09:11;4.10;90.00
19847;DHT22;10084;50.518;8.588;2024-02-28T07:11:38;4.20;90.00
19847;DHT22;10084;50.518;8.588;2024-02-28T07:14:04;4.20;89.80
19847;DHT22;10084;50.518;8.588;2024-02-28T07:16:30;4.20;89.70
19847;DHT22;10084;50.518;8.588;2024-02-28T07:18:58;4.20;89.60
19847;DHT22;10084;50.518;8.588;2024-02-28T07:21:23;4.20;89.40
19847;DHT22;10084;50.518;8.588;2024-02-28T07:23:49;4.20;89.40
19847;DHT22;10084;50.518;8.588;2024-02-28T07:26:15;4.20;89.60
19847;DHT22;10084;50.518;8.588;2024-02-28T07:28:41;4.30;89.60
19847;DHT22;10084;50.518;8.588;2024-02-28T07:31:13;4.30;90.20
19847;DHT22;10084;50.518;8.588;2024-02-28T07:33:40;4.30;89.80
19847;DHT22;10084;50.518;8.588;2024-02-28T07:36:05;4.30;89.70
19847;DHT22;10084;50.518;8.588;2024-02-28T07:38:31;4.40;89.60
19847;DHT22;10084;50.518;8.588;2024-02-28T07:40:58;4.50;89.50
19847;DHT22;10084;50.518;8.588;2024-02-28T07:43:24;4.50;89.10
19847;DHT22;10084;50.518;8.588;2024-02-28T07:45:50;4.60;89.30
19847;DHT22;10084;50.518;8.588;2024-02-28T07:48:16;4.60;89.40
19847;DHT22;10084;50.518;8.588;2024-02-28T07:50:44;4.60;89.30
19847;DHT22;10084;50.518;8.588;2024-02-28T07:53:10;4.60;89.10
19847;DHT22;10084;50.518;8.588;2024-02-28T07:55:37;4.60;89.30
19847;DHT22;10084;50.518;8.588;2024-02-28T07:58:04;4.60;89.30
19847;DHT22;10084;50.518;8.588;2024-02-28T08:00:32;4.70;89.40
19847;DHT22;10084;50.518;8.588;2024-02-28T08:02:59;4.70;89.40
19847;DHT22;10084;50.518;8.588;2024-02-28T08:05:25;4.80;89.50
19847;DHT22;10084;50.518;8.588;2024-02-28T08:07:50;4.90;88.80
19847;DHT22;10084;50.518;8.588;2024-02-28T08:10:16;4.90;88.50
19847;DHT22;10084;50.518;8.588;2024-02-28T08:12:42;5.00;88.40
19847;DHT22;10084;50.518;8.588;2024-02-28T08:15:07;5.00;88.30
19847;DHT22;10084;50.518;8.588;2024-02-28T08:17:33;5.10;88.30
19847;DHT22;10084;50.518;8.588;2024-02-28T08:19:59;5.20;88.30
19847;DHT22;10084;50.518;8.588;2024-02-28T08:22:25;5.20;88.20
19847;DHT22;10084;50.518;8.588;2024-02-28T08:24:51;5.20;88.20
19847;DHT22;10084;50.518;8.588;2024-02-28T08:27:17;5.20;87.90
19847;DHT22;10084;50.518;8.588;2024-02-28T08:29:43;5.20;87.90
19847;DHT22;10084;50.518;8.588;2024-02-28T08:32:12;5.30;87.90
19847;DHT22;10084;50.518;8.588;2024-02-28T08:34:38;5.20;87.90
19847;DHT22;10084;50.518;8.588;2024-02-28T08:37:04;5.30;88.00
19847;DHT22;10084;50.518;8.588;2024-02-28T08:39:30;5.30;87.60
19847;DHT22;10084;50.518;8.588;2024-02-28T08:41:55;5.30;87.60
19847;DHT22;10084;50.518;8.588;2024-02-28T08:44:21;5.30;87.70
19847;DHT22;10084;50.518;8.588;2024-02-28T08:46:47;5.40;87.80
19847;DHT22;10084;50.518;8.588;2024-02-28T08:49:14;5.40;88.40
19847;DHT22;10084;50.518;8.588;2024-02-28T08:51:40;5.50;88.40
19847;DHT22;10084;50.518;8.588;2024-02-28T08:54:06;5.60;88.50
19847;DHT22;10084;50.518;8.588;2024-02-28T08:56:32;5.60;88.10
19847;DHT22;10084;50.518;8.588;2024-02-28T08:58:59;5.60;87.70
19847;DHT22;10084;50.518;8.588;2024-02-28T09:01:25;5.70;87.80
19847;DHT22;10084;50.518;8.588;2024-02-28T09:03:50;5.70;87.90
19847;DHT22;10084;50.518;8.588;2024-02-28T09:06:16;5.70;87.90
19847;DHT22;10084;50.518;8.588;2024-02-28T09:08:42;5.70;87.90
19847;DHT22;10084;50.518;8.588;2024-02-28T09:11:08;5.70;88.10
19847;DHT22;10084;50.518;8.588;2024-02-28T09:13:34;5.70;88.10
19847;DHT22;10084;50.518;8.588;2024-02-28T09:16:02;5.70;88.20
19847;DHT22;10084;50.518;8.588;2024-02-28T09:18:27;5.80;88.30
19847;DHT22;10084;50.518;8.588;2024-02-28T09:20:53;5.80;88.40
19847;DHT22;10084;50.518;8.588;2024-02-28T09:23:19;5.90;88.40
19847;DHT22;10084;50.518;8.588;2024-02-28T09:25:45;6.00;88.40
19847;DHT22;10084;50.518;8.588;2024-02-28T09:28:10;6.10;88.20
19847;DHT22;10084;50.518;8.588;2024-02-28T09:30:39;6.10;87.90
19847;DHT22;10084;50.518;8.588;2024-02-28T09:33:05;6.20;87.80
19847;DHT22;10084;50.518;8.588;2024-02-28T09:35:31;6.20;87.80
19847;DHT22;10084;50.518;8.588;2024-02-28T09:37:57;6.30;87.90
19847;DHT22;10084;50.518;8.588;2024-02-28T09:40:22;6.30;87.60
19847;DHT22;10084;50.518;8.588;2024-02-28T09:43:00;6.40;87.70
19847;DHT22;10084;50.518;8.588;2024-02-28T09:45:27;6.50;87.70
19847;DHT22;10084;50.518;8.588;2024-02-28T09:47:55;6.60;87.60
19847;DHT22;10084;50.518;8.588;2024-02-28T09:50:22;6.60;87.60
19847;DHT22;10084;50.518;8.588;2024-02-28T09:52:47;6.60;87.50
19847;DHT22;10084;50.518;8.588;2024-02-28T09:55:13;6.70;87.70
19847;DHT22;10084;50.518;8.588;2024-02-28T09:57:39;6.70;87.70
19847;DHT22;10084;50.518;8.588;2024-02-28T10:00:06;6.60;87.60
19847;DHT22;10084;50.518;8.588;2024-02-28T10:02:37;6.60;87.70
19847;DHT22;10084;50.518;8.588;2024-02-28T10:05:05;6.70;87.90
19847;DHT22;10084;50.518;8.588;2024-02-28T10:07:31;6.80;87.70
19847;DHT22;10084;50.518;8.588;2024-02-28T10:09:57;7.00;86.10
19847;DHT22;10084;50.518;8.588;2024-02-28T10:12:23;7.10;85.90
19847;DHT22;10084;50.518;8.588;2024-02-28T10:14:50;7.10;85.70
19847;DHT22;10084;50.518;8.588;2024-02-28T10:17:16;7.20;85.70
19847;DHT22;10084;50.518;8.588;2024-02-28T10:19:42;7.40;85.60
19847;DHT22;10084;50.518;8.588;2024-02-28T10:22:08;7.50;85.30
19847;DHT22;10084;50.518;8.588;2024-02-28T10:24:34;7.60;85.00
19847;DHT22;10084;50.518;8.588;2024-02-28T10:27:01;7.60;84.90
19847;DHT22;10084;50.518;8.588;2024-02-28T10:29:27;7.70;84.80
19847;DHT22;10084;50.518;8.588;2024-02-28T10:31:56;7.70;84.70
19847;DHT22;10084;50.518;8.588;2024-02-28T10:34:22;7.70;84.70
19847;DHT22;10084;50.518;8.588;2024-02-28T10:36:49;7.80;84.70
19847;DHT22;10084;50.518;8.588;2024-02-28T10:39:15;7.90;84.90
19847;DHT22;10084;50.518;8.588;2024-02-28T10:41:42;8.20;85.10
19847;DHT22;10084;50.518;8.588;2024-02-28T10:44:09;8.40;84.60
19847;DHT22;10084;50.518;8.588;2024-02-28T10:46:37;8.60;84.40
19847;DHT22;10084;50.518;8.588;2024-02-28T10:49:06;8.60;83.70
19847;DHT22;10084;50.518;8.588;2024-02-28T10:51:35;8.80;84.20
19847;DHT22;10084;50.518;8.588;2024-02-28T10:54:10;9.00;84.40
19847;DHT22;10084;50.518;8.588;2024-02-28T10:56:37;9.30;84.60
19847;DHT22;10084;50.518;8.588;2024-02-28T10:59:07;9.70;83.90
19847;DHT22;10084;50.518;8.588;2024-02-28T11:01:37;9.80;83.30
19847;DHT22;10084;50.518;8.588;2024-02-28T11:04:04;10.00;83.30
19847;DHT22;10084;50.518;8.588;2024-02-28T11:06:31;10.10;83.30
19847;DHT22;10084;50.518;8.588;2024-02-28T11:09:00;10.30;83.30
19847;DHT22;10084;50.518;8.588;2024-02-28T11:11:32;10.70;83.60
19847;DHT22;10084;50.518;8.588;2024-02-28T11:13:59;11.10;83.10
19847;DHT22;10084;50.518;8.588;2024-02-28T11:16:29;12.10;82.40
19847;DHT22;10084;50.518;8.588;2024-02-28T11:18:55;12.90;80.60
19847;DHT22;10084;50.518;8.588;2024-02-28T11:21:27;13.40;79.70
19847;DHT22;10084;50.518;8.588;2024-02-28T11:24:00;13.90;79.00
19847;DHT22;10084;50.518;8.588;2024-02-28T11:26:26;14.80;77.90
19847;DHT22;10084;50.518;8.588;2024-02-28T11:28:56;16.30;76.60
19847;DHT22;10084;50.518;8.588;2024-02-28T11:31:22;17.50;73.40
19847;DHT22;10084;50.518;8.588;2024-02-28T11:33:48;18.10;72.70
19847;DHT22;10084;50.518;8.588;2024-02-28T11:36:14;18.90;71.70
19847;DHT22;10084;50.518;8.588;2024-02-28T11:38:40;19.70;69.60
19847;DHT22;10084;50.518;8.588;2024-02-28T11:41:07;20.20;68.50
19847;DHT22;10084;50.518;8.588;2024-02-28T11:43:33;20.60;67.20
19847;DHT22;10084;50.518;8.588;2024-02-28T11:46:00;20.90;67.00
19847;DHT22;10084;50.518;8.588;2024-02-28T11:48:26;21.20;67.20
19847;DHT22;10084;50.518;8.588;2024-02-28T11:50:53;22.00;66.60
19847;DHT22;10084;50.518;8.588;2024-02-28T11:53:19;22.90;65.30
19847;DHT22;10084;50.518;8.588;2024-02-28T11:55:48;23.70;63.00
19847;DHT22;10084;50.518;8.588;2024-02-28T11:58:15;24.20;61.90
19847;DHT22;10084;50.518;8.588;2024-02-28T12:00:48;24.90;60.80
19847;DHT22;10084;50.518;8.588;2024-02-28T12:03:13;25.40;59.80
19847;DHT22;10084;50.518;8.588;2024-02-28T12:05:43;25.70;59.60
19847;DHT22;10084;50.518;8.588;2024-02-28T12:08:11;26.10;59.10
19847;DHT22;10084;50.518;8.588;2024-02-28T12:10:36;26.50;59.50
19847;DHT22;10084;50.518;8.588;2024-02-28T12:13:02;26.80;60.20
19847;DHT22;10084;50.518;8.588;2024-02-28T12:15:29;27.20;60.00
19847;DHT22;10084;50.518;8.588;2024-02-28T12:17:55;27.50;59.80
19847;DHT22;10084;50.518;8.588;2024-02-28T12:20:23;27.80;61.10
19847;DHT22;10084;50.518;8.588;2024-02-28T12:22:49;28.00;61.70
19847;DHT22;10084;50.518;8.588;2024-02-28T12:25:15;28.40;61.10
19847;DHT22;10084;50.518;8.588;2024-02-28T12:27:40;28.80;61.40
19847;DHT22;10084;50.518;8.588;2024-02-28T12:30:07;28.80;60.70
19847;DHT22;10084;50.518;8.588;2024-02-28T12:32:33;28.70;60.50
19847;DHT22;10084;50.518;8.588;2024-02-28T12:34:59;28.50;60.10
19847;DHT22;10084;50.518;8.588;2024-02-28T12:37:24;28.40;59.60
19847;DHT22;10084;50.518;8.588;2024-02-28T12:39:50;28.20;59.20
19847;DHT22;10084;50.518;8.588;2024-02-28T12:42:17;28.20;59.00
19847;DHT22;10084;50.518;8.588;2024-02-28T12:44:43;28.30;58.50
19847;DHT22;10084;50.518;8.588;2024-02-28T12:47:12;28.50;57.80
19847;DHT22;10084;50.518;8.588;2024-02-28T12:49:38;28.70;57.30
19847;DHT22;10084;50.518;8.588;2024-02-28T12:52:04;28.80;56.60
19847;DHT22;10084;50.518;8.588;2024-02-28T12:54:30;28.70;56.00
19847;DHT22;10084;50.518;8.588;2024-02-28T12:56:55;28.80;55.60
19847;DHT22;10084;50.518;8.588;2024-02-28T12:59:21;28.90;55.30
19847;DHT22;10084;50.518;8.588;2024-02-28T13:01:47;28.90;55.10
19847;DHT22;10084;50.518;8.588;2024-02-28T13:04:16;28.70;54.60
19847;DHT22;10084;50.518;8.588;2024-02-28T13:06:41;28.10;54.40
19847;DHT22;10084;50.518;8.588;2024-02-28T13:09:08;27.70;54.70
19847;DHT22;10084;50.518;8.588;2024-02-28T13:11:38;27.50;54.30
19847;DHT22;10084;50.518;8.588;2024-02-28T13:14:05;26.70;54.10
19847;DHT22;10084;50.518;8.588;2024-02-28T13:16:30;25.70;53.40
19847;DHT22;10084;50.518;8.588;2024-02-28T13:18:56;24.80;53.70
19847;DHT22;10084;50.518;8.588;2024-02-28T13:21:22;23.90;54.80
19847;DHT22;10084;50.518;8.588;2024-02-28T13:23:47;22.80;54.60
19847;DHT22;10084;50.518;8.588;2024-02-28T13:26:13;21.90;55.70
19847;DHT22;10084;50.518;8.588;2024-02-28T13:28:43;21.10;56.20
19847;DHT22;10084;50.518;8.588;2024-02-28T13:31:09;20.30;57.00
19847;DHT22;10084;50.518;8.588;2024-02-28T13:33:35;19.90;58.00
19847;DHT22;10084;50.518;8.588;2024-02-28T13:36:02;19.80;58.30
19847;DHT22;10084;50.518;8.588;2024-02-28T13:38:28;20.00;57.80
19847;DHT22;10084;50.518;8.588;2024-02-28T13:40:54;20.10;56.50
19847;DHT22;10084;50.518;8.588;2024-02-28T13:43:20;20.10;56.50
19847;DHT22;10084;50.518;8.588;2024-02-28T13:45:47;20.20;56.70
19847;DHT22;10084;50.518;8.588;2024-02-28T13:48:21;20.40;56.50
19847;DHT22;10084;50.518;8.588;2024-02-28T13:50:48;20.30;56.30
19847;DHT22;10084;50.518;8.588;2024-02-28T13:53:14;20.00;56.40
19847;DHT22;10084;50.518;8.588;2024-02-28T13:55:41;19.90;56.70
19847;DHT22;10084;50.518;8.588;2024-02-28T13:58:11;19.70;56.50
19847;DHT22;10084;50.518;8.588;2024-02-28T14:00:37;19.10;56.70
19847;DHT22;10084;50.518;8.588;2024-02-28T14:03:04;18.70;57.30
19847;DHT22;10084;50.518;8.588;2024-02-28T14:05:30;18.40;57.90
19847;DHT22;10084;50.518;8.588;2024-02-28T14:07:56;18.20;58.10
19847;DHT22;10084;50.518;8.588;2024-02-28T14:10:26;18.10;58.30
19847;DHT22;10084;50.518;8.588;2024-02-28T14:12:52;18.00;58.10
19847;DHT22;10084;50.518;8.588;2024-02-28T14:15:20;17.80;58.10
19847;DHT22;10084;50.518;8.588;2024-02-28T14:17:46;17.60;58.00
19847;DHT22;10084;50.518;8.588;2024-02-28T14:20:12;17.30;58.20
19847;DHT22;10084;50.518;8.588;2024-02-28T14:22:38;16.90;58.50
19847;DHT22;10084;50.518;8.588;2024-02-28T14:25:15;16.40;59.10
19847;DHT22;10084;50.518;8.588;2024-02-28T14:27:43;15.70;59.90
19847;DHT22;10084;50.518;8.588;2024-02-28T14:30:09;14.90;60.80
19847;DHT22;10084;50.518;8.588;2024-02-28T14:32:36;14.30;61.90
19847;DHT22;10084;50.518;8.588;2024-02-28T14:35:06;13.70;62.60
19847;DHT22;10084;50.518;8.588;2024-02-28T14:37:34;13.10;63.40
19847;DHT22;10084;50.518;8.588;2024-02-28T14:40:00;12.70;64.10
19847;DHT22;10084;50.518;8.588;2024-02-28T14:42:36;12.40;64.70
19847;DHT22;10084;50.518;8.588;2024-02-28T14:45:02;12.20;65.20
19847;DHT22;10084;50.518;8.588;2024-02-28T14:47:29;12.10;65.50
19847;DHT22;10084;50.518;8.588;2024-02-28T14:49:55;12.00;65.80
19847;DHT22;10084;50.518;8.588;2024-02-28T14:52:20;11.90;66.00
19847;DHT22;10084;50.518;8.588;2024-02-28T14:54:47;11.80;66.30
19847;DHT22;10084;50.518;8.588;2024-02-28T14:57:13;11.80;66.60
19847;DHT22;10084;50.518;8.588;2024-02-28T14:59:39;11.90;66.60
19847;DHT22;10084;50.518;8.588;2024-02-28T15:02:05;11.90;66.60
19847;DHT22;10084;50.518;8.588;2024-02-28T15:04:31;11.80;66.40
19847;DHT22;10084;50.518;8.588;2024-02-28T15:06:57;11.70;66.70
19847;DHT22;10084;50.518;8.588;2024-02-28T15:09:22;11.60;66.90
19847;DHT22;10084;50.518;8.588;2024-02-28T15:11:48;11.40;67.00
19847;DHT22;10084;50.518;8.588;2024-02-28T15:14:15;11.30;67.10
19847;DHT22;10084;50.518;8.588;2024-02-28T15:16:40;11.10;67.20
19847;DHT22;10084;50.518;8.588;2024-02-28T15:19:06;11.00;67.40
19847;DHT22;10084;50.518;8.588;2024-02-28T15:21:32;11.00;67.50
19847;DHT22;10084;50.518;8.588;2024-02-28T15:23:58;10.90;67.60
19847;DHT22;10084;50.518;8.588;2024-02-28T15:26:23;10.80;67.60
19847;DHT22;10084;50.518;8.588;2024-02-28T15:28:50;10.80;67.80
19847;DHT22;10084;50.518;8.588;2024-02-28T15:31:15;10.70;68.00
19847;DHT22;10084;50.518;8.588;2024-02-28T15:33:41;10.60;68.10
19847;DHT22;10084;50.518;8.588;2024-02-28T15:36:08;10.50;68.30
19847;DHT22;10084;50.518;8.588;2024-02-28T15:38:34;10.50;68.50